createdAt,value
2023-07-09T00:00:47.854Z,500.00
2023-07-09T00:01:47.903Z,500.00
2023-07-09T00:02:47.911Z,500.00
2023-07-09T00:03:47.916Z,443.00
2023-07-09T00:04:47.881Z,410.00
2023-07-09T00:05:48.205Z,400.00
2023-07-09T00:06:47.872Z,400.00
2023-07-09T00:07:47.856Z,400.00
2023-07-09T00:08:47.858Z,400.00
2023-07-09T00:09:47.844Z,400.00
2023-07-09T00:10:47.828Z,416.00
2023-07-09T00:11:47.836Z,446.00
2023-07-09T00:12:47.852Z,465.00
2023-07-09T00:13:47.910Z,507.00
2023-07-09T00:14:47.847Z,500.00
2023-07-09T00:15:47.907Z,500.00
2023-07-09T00:16:48.941Z,500.00
2023-07-09T00:17:47.884Z,500.00
2023-07-09T00:18:47.833Z,500.00
2023-07-09T00:19:47.823Z,503.00
2023-07-09T00:20:47.816Z,502.00
2023-07-09T00:21:47.804Z,503.00
2023-07-09T00:22:47.803Z,532.00
2023-07-09T00:23:47.854Z,545.00
2023-07-09T00:24:47.914Z,520.00
2023-07-09T00:25:47.951Z,525.00
2023-07-09T00:26:48.032Z,504.00
2023-07-09T00:27:48.065Z,527.00
2023-07-09T00:28:48.121Z,557.00
2023-07-09T00:29:48.179Z,555.00
2023-07-09T00:30:48.269Z,570.00
2023-07-09T00:31:48.338Z,577.00
2023-07-09T00:32:48.383Z,621.00
2023-07-09T00:33:48.384Z,608.00
2023-07-09T00:34:48.438Z,582.00
2023-07-09T00:35:48.486Z,608.00
2023-07-09T00:36:48.551Z,634.00
2023-07-09T00:37:48.592Z,708.00
2023-07-09T00:38:48.665Z,788.00
2023-07-09T00:39:48.731Z,776.00
2023-07-09T00:40:48.774Z,764.00
2023-07-09T00:41:48.826Z,645.00
2023-07-09T00:42:48.886Z,569.00
2023-07-09T00:43:48.958Z,528.00
2023-07-09T00:44:48.993Z,514.00
2023-07-09T00:45:51.024Z,517.00
2023-07-09T00:46:49.069Z,552.00
2023-07-09T00:47:49.088Z,575.00
2023-07-09T00:48:49.050Z,718.00
2023-07-09T00:49:49.090Z,1115.00
2023-07-09T00:50:49.059Z,1190.00
2023-07-09T00:51:49.111Z,1188.00
2023-07-09T00:52:49.059Z,1147.00
2023-07-09T00:53:49.062Z,920.00
2023-07-09T00:54:49.070Z,834.00
2023-07-09T00:55:49.070Z,859.00
2023-07-09T00:56:49.068Z,829.00
2023-07-09T00:57:49.072Z,717.00
2023-07-09T00:58:49.121Z,788.00
2023-07-09T00:59:49.095Z,887.00
2023-07-09T01:00:49.103Z,607.00
2023-07-09T01:01:49.203Z,530.00
2023-07-09T01:02:49.184Z,500.00
2023-07-09T01:03:49.096Z,501.00
2023-07-09T01:04:49.200Z,533.00
2023-07-09T01:05:49.096Z,514.00
2023-07-09T01:06:49.100Z,482.00
2023-07-09T01:07:49.107Z,492.00
2023-07-09T01:08:49.105Z,498.00
2023-07-09T01:09:49.108Z,506.00
2023-07-09T01:10:49.113Z,530.00
2023-07-09T01:11:49.119Z,535.00
2023-07-09T01:12:49.148Z,557.00
2023-07-09T01:13:49.240Z,541.00
2023-07-09T01:14:49.175Z,553.00
2023-07-09T01:15:49.330Z,537.00
2023-07-09T01:16:49.218Z,653.00
2023-07-09T01:17:49.281Z,881.00
2023-07-09T01:18:49.282Z,1049.00
2023-07-09T01:19:49.272Z,1137.00
2023-07-09T01:20:49.280Z,1236.00
2023-07-09T01:21:49.289Z,1289.00
2023-07-09T01:22:49.303Z,1400.00
2023-07-09T01:23:49.372Z,1420.00
2023-07-09T01:24:49.361Z,1514.00
2023-07-09T01:25:49.412Z,1116.00
2023-07-09T01:26:49.454Z,769.00
2023-07-09T01:27:49.509Z,607.00
2023-07-09T01:28:49.548Z,531.00
2023-07-09T01:29:49.610Z,530.00
2023-07-09T01:30:49.644Z,561.00
2023-07-09T01:31:49.684Z,569.00
2023-07-09T01:32:49.822Z,586.00
2023-07-09T01:33:50.288Z,606.00
2023-07-09T01:34:49.785Z,625.00
2023-07-09T01:35:49.792Z,593.00
2023-07-09T01:36:49.823Z,604.00
2023-07-09T01:37:49.835Z,622.00
2023-07-09T01:38:49.880Z,629.00
2023-07-09T01:39:49.907Z,635.00
2023-07-09T01:40:49.954Z,622.00
2023-07-09T01:41:49.989Z,623.00
2023-07-09T01:42:50.036Z,632.00
2023-07-09T01:43:50.088Z,783.00
2023-07-09T01:44:50.133Z,991.00
2023-07-09T01:45:50.171Z,1130.00
2023-07-09T01:46:50.256Z,1194.00
2023-07-09T01:47:50.366Z,1211.00
2023-07-09T01:48:50.289Z,1264.00
2023-07-09T01:49:50.336Z,1261.00
2023-07-09T01:50:50.396Z,1262.00
2023-07-09T01:51:50.407Z,1115.00
2023-07-09T01:52:50.428Z,952.00
2023-07-09T01:53:50.449Z,865.00
2023-07-09T01:54:50.618Z,815.00
2023-07-09T01:55:50.524Z,893.00
2023-07-09T01:56:50.561Z,992.00
2023-07-09T01:57:50.584Z,912.00
2023-07-09T01:58:51.035Z,820.00
2023-07-09T01:59:50.642Z,791.00
2023-07-09T02:00:50.723Z,834.00
2023-07-09T02:01:50.673Z,785.00
2023-07-09T02:02:50.700Z,702.00
2023-07-09T02:03:50.724Z,613.00
2023-07-09T02:04:50.777Z,577.00
2023-07-09T02:05:50.803Z,500.00
2023-07-09T02:06:50.926Z,500.00
2023-07-09T02:07:50.869Z,503.00
2023-07-09T02:08:50.894Z,500.00
2023-07-09T02:09:51.860Z,507.00
2023-07-09T02:10:51.043Z,511.00
2023-07-09T02:11:51.125Z,500.00
2023-07-09T02:12:51.195Z,498.00
2023-07-09T02:13:51.314Z,508.00
2023-07-09T02:14:51.325Z,514.00
2023-07-09T02:15:51.397Z,524.00
2023-07-09T02:16:51.512Z,556.00
2023-07-09T02:17:51.565Z,552.00
2023-07-09T02:18:51.623Z,509.00
2023-07-09T02:19:51.662Z,500.00
2023-07-09T02:20:51.726Z,500.00
2023-07-09T02:21:51.808Z,515.00
2023-07-09T02:22:51.872Z,526.00
2023-07-09T02:23:51.887Z,531.00
2023-07-09T02:24:51.940Z,542.00
2023-07-09T02:25:51.987Z,559.00
2023-07-09T02:26:52.080Z,565.00
2023-07-09T02:27:52.051Z,542.00
2023-07-09T02:28:52.061Z,499.00
2023-07-09T02:29:52.064Z,502.00
2023-07-09T02:30:52.108Z,516.00
2023-07-09T02:31:52.099Z,513.00
2023-07-09T02:32:52.190Z,522.00
2023-07-09T02:33:52.117Z,516.00
2023-07-09T02:34:52.136Z,525.00
2023-07-09T02:35:52.145Z,520.00
2023-07-09T02:36:52.137Z,508.00
2023-07-09T02:37:52.167Z,500.00
2023-07-09T02:38:52.812Z,500.00
2023-07-09T02:39:52.150Z,484.00
2023-07-09T02:40:52.158Z,501.00
2023-07-09T02:41:52.198Z,520.00
2023-07-09T02:42:52.180Z,500.00
2023-07-09T02:43:52.181Z,504.00
2023-07-09T02:44:52.192Z,515.00
2023-07-09T02:45:52.196Z,502.00
2023-07-09T02:46:52.222Z,502.00
2023-07-09T02:47:52.349Z,521.00
2023-07-09T02:48:52.215Z,513.00
2023-07-09T02:49:52.237Z,500.00
2023-07-09T02:50:52.228Z,500.00
2023-07-09T02:51:52.269Z,501.00
2023-07-09T02:52:52.332Z,501.00
2023-07-09T02:53:52.338Z,507.00
2023-07-09T02:54:52.398Z,517.00
2023-07-09T02:55:52.448Z,492.00
2023-07-09T02:56:52.534Z,500.00
2023-07-09T02:57:52.617Z,500.00
2023-07-09T02:58:52.703Z,547.00
2023-07-09T02:59:52.768Z,597.00
2023-07-09T03:00:52.844Z,631.00
2023-07-09T03:01:52.922Z,612.00
2023-07-09T03:02:53.081Z,638.00
2023-07-09T03:03:53.078Z,662.00
2023-07-09T03:04:53.148Z,693.00
2023-07-09T03:05:53.241Z,858.00
2023-07-09T03:06:53.319Z,975.00
2023-07-09T03:07:53.402Z,1079.00
2023-07-09T03:08:53.475Z,1091.00
2023-07-09T03:09:53.545Z,1122.00
2023-07-09T03:10:53.662Z,1218.00
2023-07-09T03:11:53.698Z,1306.00
2023-07-09T03:12:53.779Z,1389.00
2023-07-09T03:13:53.888Z,1402.00
2023-07-09T03:14:53.934Z,1314.00
2023-07-09T03:15:53.989Z,1265.00
2023-07-09T03:16:54.178Z,1272.00
2023-07-09T03:17:54.196Z,1231.00
2023-07-09T03:18:54.213Z,1231.00
2023-07-09T03:19:54.320Z,1194.00
2023-07-09T03:20:54.374Z,1216.00
2023-07-09T03:21:54.448Z,1168.00
2023-07-09T03:22:54.487Z,1166.00
2023-07-09T03:23:54.543Z,1244.00
2023-07-09T03:24:54.616Z,1293.00
2023-07-09T03:25:54.665Z,1258.00
2023-07-09T03:26:54.769Z,1256.00
2023-07-09T03:27:54.810Z,1341.00
2023-07-09T03:28:54.892Z,1356.00
2023-07-09T03:29:54.966Z,1412.00
2023-07-09T03:30:55.030Z,1396.00
2023-07-09T03:31:55.181Z,1465.00
2023-07-09T03:32:55.274Z,1503.00
2023-07-09T03:33:55.304Z,1552.00
2023-07-09T03:34:55.384Z,1513.00
2023-07-09T03:35:55.472Z,1429.00
2023-07-09T03:36:55.527Z,1267.00
2023-07-09T03:37:55.570Z,1204.00
2023-07-09T03:38:55.622Z,1218.00
2023-07-09T03:39:55.674Z,1201.00
2023-07-09T03:40:55.727Z,1255.00
2023-07-09T03:41:55.802Z,1265.00
2023-07-09T03:42:55.901Z,1276.00
2023-07-09T03:43:55.964Z,1269.00
2023-07-09T03:44:56.036Z,1293.00
2023-07-09T03:45:56.112Z,1333.00
2023-07-09T03:46:56.209Z,1400.00
2023-07-09T03:47:56.286Z,1395.00
2023-07-09T03:48:56.338Z,1394.00
2023-07-09T03:49:56.350Z,1414.00
2023-07-09T03:50:56.413Z,1423.00
2023-07-09T03:51:56.487Z,1464.00
2023-07-09T03:52:56.536Z,1423.00
2023-07-09T03:53:56.605Z,1522.00
2023-07-09T03:54:56.672Z,1603.00
2023-07-09T03:55:56.758Z,1804.00
2023-07-09T03:56:56.827Z,1951.00
2023-07-09T03:57:56.910Z,2137.00
2023-07-09T03:58:57.054Z,2273.00
2023-07-09T03:59:57.068Z,2365.00
2023-07-09T04:00:57.161Z,2420.00
2023-07-09T04:01:57.381Z,2474.00
2023-07-09T04:02:57.374Z,2523.00
2023-07-09T04:03:57.439Z,2539.00
2023-07-09T04:04:57.474Z,2509.00
2023-07-09T04:05:57.554Z,2627.00
2023-07-09T04:06:57.633Z,2770.00
2023-07-09T04:07:57.711Z,2814.00
2023-07-09T04:08:57.776Z,2562.00
2023-07-09T04:09:57.842Z,2402.00
2023-07-09T04:10:57.893Z,2397.00
2023-07-09T04:11:57.936Z,2202.00
2023-07-09T04:12:57.996Z,2148.00
2023-07-09T04:13:58.072Z,2035.00
2023-07-09T04:14:58.088Z,1875.00
2023-07-09T04:15:58.178Z,1851.00
2023-07-09T04:16:58.107Z,1736.00
2023-07-09T04:17:58.176Z,1716.00
2023-07-09T04:18:58.109Z,1673.00
2023-07-09T04:19:58.131Z,1663.00
2023-07-09T04:20:58.197Z,1653.00
2023-07-09T04:21:58.232Z,1672.00
2023-07-09T04:22:58.285Z,1779.00
2023-07-09T04:23:58.299Z,1850.00
2023-07-09T04:24:58.300Z,1928.00
2023-07-09T04:25:58.279Z,2058.00
2023-07-09T04:26:58.285Z,2081.00
2023-07-09T04:27:58.317Z,2113.00
2023-07-09T04:28:58.341Z,2158.00
2023-07-09T04:29:58.357Z,2151.00
2023-07-09T04:30:58.369Z,2177.00
2023-07-09T04:31:58.414Z,2131.00
2023-07-09T04:32:58.332Z,2114.00
2023-07-09T04:33:58.301Z,2164.00
2023-07-09T04:34:58.315Z,2232.00
2023-07-09T04:35:58.318Z,2287.00
2023-07-09T04:36:58.345Z,2275.00
2023-07-09T04:37:58.360Z,2313.00
2023-07-09T04:38:58.359Z,2336.00
2023-07-09T04:39:58.342Z,2281.00
2023-07-09T04:40:58.324Z,2306.00
2023-07-09T04:41:58.328Z,2296.00
2023-07-09T04:42:58.280Z,2234.00
2023-07-09T04:43:58.255Z,2243.00
2023-07-09T04:44:58.285Z,2334.00
2023-07-09T04:45:58.269Z,2461.00
2023-07-09T04:46:58.168Z,2465.00
2023-07-09T04:47:58.154Z,2460.00
2023-07-09T04:48:58.116Z,2462.00
2023-07-09T04:49:58.116Z,2498.00
2023-07-09T04:50:58.094Z,2496.00
2023-07-09T04:51:58.057Z,2605.00
2023-07-09T04:52:58.030Z,2723.00
2023-07-09T04:53:58.015Z,2750.00
2023-07-09T04:54:58.007Z,2695.00
2023-07-09T04:55:58.960Z,2682.00
2023-07-09T04:56:57.932Z,2918.00
2023-07-09T04:57:57.927Z,2683.00
2023-07-09T04:58:57.902Z,2379.00
2023-07-09T04:59:57.878Z,2304.00
2023-07-09T05:00:57.901Z,2151.00
2023-07-09T05:01:57.795Z,1830.00
2023-07-09T05:02:57.866Z,1709.00
2023-07-09T05:03:57.826Z,1643.00
2023-07-09T05:04:57.771Z,1696.00
2023-07-09T05:05:57.753Z,1837.00
2023-07-09T05:06:57.755Z,1995.00
2023-07-09T05:07:57.747Z,2181.00
2023-07-09T05:08:57.748Z,2350.00
2023-07-09T05:09:57.743Z,2379.00
2023-07-09T05:10:57.707Z,2272.00
2023-07-09T05:11:57.662Z,2383.00
2023-07-09T05:12:57.674Z,2505.00
2023-07-09T05:13:57.702Z,2618.00
2023-07-09T05:14:57.694Z,2649.00
2023-07-09T05:15:57.701Z,2613.00
2023-07-09T05:16:57.624Z,2567.00
2023-07-09T05:17:57.698Z,2546.00
2023-07-09T05:18:57.644Z,2545.00
2023-07-09T05:19:57.554Z,2627.00
2023-07-09T05:20:57.659Z,2723.00
2023-07-09T05:21:57.464Z,2910.00
2023-07-09T05:22:57.422Z,3024.00
2023-07-09T05:23:57.448Z,3139.00
2023-07-09T05:24:57.359Z,3159.00
2023-07-09T05:25:57.326Z,3271.00
2023-07-09T05:26:57.313Z,3296.00
2023-07-09T05:27:57.305Z,3352.00
2023-07-09T05:28:57.314Z,3341.00
2023-07-09T05:29:57.351Z,3345.00
2023-07-09T05:30:57.405Z,3364.00
2023-07-09T05:31:57.370Z,3332.00
2023-07-09T05:32:57.420Z,3275.00
2023-07-09T05:33:57.410Z,3247.00
2023-07-09T05:34:57.415Z,3181.00
2023-07-09T05:35:57.408Z,3068.00
2023-07-09T05:36:59.657Z,3095.00
2023-07-09T05:37:57.363Z,2983.00
2023-07-09T05:38:57.303Z,2972.00
2023-07-09T05:39:57.286Z,3044.00
2023-07-09T05:40:57.222Z,2938.00
2023-07-09T05:41:57.501Z,3000.00
2023-07-09T05:42:57.152Z,3079.00
2023-07-09T05:43:57.122Z,3108.00
2023-07-09T05:44:57.079Z,3206.00
2023-07-09T05:45:57.044Z,3344.00
2023-07-09T05:46:57.038Z,3387.00
2023-07-09T05:47:56.980Z,3335.00
2023-07-09T05:48:56.917Z,3433.00
2023-07-09T05:49:56.881Z,3550.00
2023-07-09T05:50:56.858Z,3517.00
2023-07-09T05:51:56.787Z,3448.00
2023-07-09T05:52:56.729Z,3412.00
2023-07-09T05:53:56.688Z,3403.00
2023-07-09T05:54:56.676Z,3438.00
2023-07-09T05:55:56.661Z,3508.00
2023-07-09T05:56:56.724Z,3460.00
2023-07-09T05:57:56.712Z,3465.00
2023-07-09T05:58:56.719Z,3330.00
2023-07-09T05:59:56.731Z,3180.00
2023-07-09T06:00:56.785Z,3127.00
2023-07-09T06:01:56.755Z,3173.00
2023-07-09T06:02:57.017Z,3263.00
2023-07-09T06:03:56.895Z,3185.00
2023-07-09T06:04:56.764Z,3134.00
2023-07-09T06:05:56.738Z,3002.00
2023-07-09T06:06:56.739Z,3015.00
2023-07-09T06:07:56.716Z,2892.00
2023-07-09T06:08:56.744Z,2835.00
2023-07-09T06:09:56.763Z,2800.00
2023-07-09T06:10:56.787Z,2866.00
2023-07-09T06:11:56.790Z,2857.00
2023-07-09T06:12:56.807Z,2753.00
2023-07-09T06:13:57.031Z,2686.00
2023-07-09T06:14:56.800Z,2537.00
2023-07-09T06:15:56.816Z,2527.00
2023-07-09T06:16:56.905Z,2584.00
2023-07-09T06:17:56.839Z,2569.00
2023-07-09T06:18:56.819Z,2427.00
2023-07-09T06:19:59.427Z,2349.00
2023-07-09T06:20:56.835Z,2305.00
2023-07-09T06:21:56.751Z,2290.00
2023-07-09T06:22:56.714Z,2326.00
2023-07-09T06:23:56.645Z,2185.00
2023-07-09T06:24:56.597Z,2159.00
2023-07-09T06:25:56.547Z,2170.00
2023-07-09T06:26:56.521Z,2187.00
2023-07-09T06:27:56.446Z,2179.00
2023-07-09T06:28:59.692Z,2070.00
2023-07-09T06:29:56.350Z,2071.00
2023-07-09T06:30:56.378Z,2056.00
2023-07-09T06:31:56.288Z,1971.00
2023-07-09T06:32:56.308Z,1926.00
2023-07-09T06:33:56.196Z,1751.00
2023-07-09T06:34:56.143Z,1699.00
2023-07-09T06:35:56.125Z,1714.00
2023-07-09T06:36:56.057Z,1508.00
2023-07-09T06:37:56.004Z,1515.00
2023-07-09T06:38:55.982Z,1425.00
2023-07-09T06:39:55.908Z,1408.00
2023-07-09T06:40:55.878Z,1182.00
2023-07-09T06:41:55.823Z,1076.00
2023-07-09T06:42:55.769Z,950.00
2023-07-09T06:43:55.713Z,800.00
2023-07-09T06:44:55.660Z,674.00
2023-07-09T06:45:55.610Z,661.00
2023-07-09T06:46:55.610Z,623.00
2023-07-09T06:47:55.559Z,540.00
2023-07-09T06:48:55.470Z,519.00
2023-07-09T06:49:55.419Z,502.00
2023-07-09T06:50:55.356Z,501.00
2023-07-09T06:51:55.304Z,500.00
2023-07-09T06:52:55.317Z,505.00
2023-07-09T06:53:55.306Z,500.00
2023-07-09T06:54:55.320Z,513.00
2023-07-09T06:55:55.281Z,546.00
2023-07-09T06:56:55.257Z,517.00
2023-07-09T06:57:55.216Z,500.00
2023-07-09T06:58:55.181Z,487.00
2023-07-09T06:59:55.139Z,493.00
2023-07-09T07:00:55.103Z,512.00
2023-07-09T07:01:55.133Z,504.00
2023-07-09T07:02:55.056Z,500.00
2023-07-09T07:03:55.012Z,490.00
2023-07-09T07:04:54.927Z,536.00
2023-07-09T07:05:54.950Z,631.00
2023-07-09T07:06:54.906Z,507.00
2023-07-09T07:07:54.903Z,506.00
2023-07-09T07:08:54.885Z,500.00
2023-07-09T07:09:54.883Z,452.00
2023-07-09T07:10:54.909Z,503.00
2023-07-09T07:11:54.906Z,476.00
2023-07-09T07:12:54.849Z,500.00
2023-07-09T07:13:54.868Z,464.00
2023-07-09T07:14:54.777Z,505.00
2023-07-09T07:15:54.723Z,523.00
2023-07-09T07:16:54.750Z,511.00
2023-07-09T07:17:54.675Z,494.00
2023-07-09T07:18:54.607Z,554.00
2023-07-09T07:19:54.548Z,582.00
2023-07-09T07:20:54.483Z,572.00
2023-07-09T07:21:54.434Z,595.00
2023-07-09T07:22:54.388Z,558.00
2023-07-09T07:23:54.311Z,569.00
2023-07-09T07:24:54.243Z,502.00
2023-07-09T07:25:54.182Z,511.00
2023-07-09T07:26:54.155Z,506.00
2023-07-09T07:27:54.103Z,499.00
2023-07-09T07:28:57.696Z,498.00
2023-07-09T07:29:53.905Z,499.00
2023-07-09T07:30:53.837Z,505.00
2023-07-09T07:31:53.778Z,464.00
2023-07-09T07:32:53.736Z,400.00
2023-07-09T07:33:53.589Z,400.00
2023-07-09T07:34:53.504Z,400.00
2023-07-09T07:36:20.356Z,400.00
2023-07-09T07:36:53.351Z,400.00
2023-07-09T07:37:53.311Z,400.00
2023-07-09T07:38:53.192Z,400.00
2023-07-09T07:39:53.140Z,400.00
2023-07-09T07:40:53.017Z,400.00
2023-07-09T07:41:52.936Z,400.00
2023-07-09T07:42:52.859Z,400.00
2023-07-09T07:43:52.764Z,400.00
2023-07-09T07:44:52.646Z,400.00
2023-07-09T07:45:52.564Z,400.00
2023-07-09T07:46:54.283Z,403.00
2023-07-09T07:47:52.397Z,414.00
2023-07-09T07:48:52.236Z,533.00
2023-07-09T07:49:52.133Z,505.00
2023-07-09T07:50:52.028Z,500.00
2023-07-09T07:51:51.925Z,533.00
2023-07-09T07:52:51.827Z,502.00
2023-07-09T07:53:51.703Z,499.00
2023-07-09T07:54:51.594Z,601.00
2023-07-09T07:55:51.495Z,552.00
2023-07-09T07:56:51.358Z,520.00
2023-07-09T07:57:51.252Z,580.00
2023-07-09T07:58:51.157Z,500.00
2023-07-09T07:59:51.015Z,514.00
2023-07-09T08:00:50.900Z,515.00
2023-07-09T08:01:50.859Z,477.00
2023-07-09T08:02:50.660Z,475.00
2023-07-09T08:03:50.643Z,596.00
2023-07-09T08:04:50.436Z,719.00
2023-07-09T08:05:50.376Z,694.00
2023-07-09T08:06:50.298Z,600.00
2023-07-09T08:07:50.227Z,535.00
2023-07-09T08:08:50.133Z,415.00
2023-07-09T08:09:50.012Z,509.00
2023-07-09T08:10:49.882Z,450.00
2023-07-09T08:11:49.756Z,486.00
2023-07-09T08:12:49.669Z,538.00
2023-07-09T08:13:49.672Z,586.00
2023-07-09T08:14:49.556Z,503.00
2023-07-09T08:15:49.832Z,527.00
2023-07-09T08:16:49.441Z,474.00
2023-07-09T08:17:49.312Z,602.00
2023-07-09T08:18:49.226Z,522.00
2023-07-09T08:19:49.061Z,496.00
2023-07-09T08:20:48.977Z,464.00
2023-07-09T08:21:48.905Z,413.00
2023-07-09T08:22:48.802Z,566.00
2023-07-09T08:23:48.698Z,580.00
2023-07-09T08:24:48.569Z,535.00
2023-07-09T08:25:48.446Z,524.00
2023-07-09T08:26:48.313Z,624.00
2023-07-09T08:27:48.173Z,479.00
2023-07-09T08:28:48.075Z,471.00
2023-07-09T08:29:47.940Z,486.00
2023-07-09T08:30:47.854Z,558.00
2023-07-09T08:31:47.714Z,600.00
2023-07-09T08:32:47.570Z,637.00
2023-07-09T08:33:47.397Z,651.00
2023-07-09T08:35:18.077Z,640.00
2023-07-09T08:35:47.059Z,628.00
2023-07-09T08:36:46.890Z,602.00
2023-07-09T08:37:46.727Z,642.00
2023-07-09T08:38:46.673Z,616.00
2023-07-09T08:39:46.386Z,577.00
2023-07-09T08:40:46.233Z,483.00
2023-07-09T08:41:46.028Z,475.00
2023-07-09T08:42:59.447Z,453.00
2023-07-09T08:43:45.704Z,400.00
2023-07-09T08:44:45.535Z,400.00
2023-07-09T08:45:45.451Z,400.00
2023-07-09T08:46:45.227Z,400.00
2023-07-09T08:47:45.129Z,405.00
2023-07-09T08:48:45.368Z,410.00
2023-07-09T08:49:44.690Z,426.00
2023-07-09T08:50:44.513Z,473.00
2023-07-09T08:51:44.322Z,427.00
2023-07-09T08:52:44.170Z,545.00
2023-07-09T08:53:43.966Z,444.00
2023-07-09T08:54:43.788Z,451.00
2023-07-09T08:55:43.602Z,588.00
2023-07-09T08:56:43.431Z,638.00
2023-07-09T08:57:43.281Z,510.00
2023-07-09T08:58:43.065Z,503.00
2023-07-09T08:59:42.893Z,551.00
2023-07-09T09:00:42.752Z,500.00
2023-07-09T09:01:42.538Z,400.00
2023-07-09T09:02:45.422Z,451.00
2023-07-09T09:03:42.216Z,400.00
2023-07-09T09:04:41.960Z,437.00
2023-07-09T09:05:41.850Z,481.00
2023-07-09T09:06:41.590Z,506.00
2023-07-09T09:07:41.400Z,446.00
2023-07-09T09:08:41.324Z,565.00
2023-07-09T09:09:41.024Z,559.00
2023-07-09T09:10:40.836Z,542.00
2023-07-09T09:11:40.641Z,481.00
2023-07-09T09:12:40.439Z,454.00
2023-07-09T09:13:40.333Z,487.00
2023-07-09T09:14:40.064Z,494.00
2023-07-09T09:15:39.892Z,555.00
2023-07-09T09:16:39.749Z,620.00
2023-07-09T09:17:39.659Z,732.00
2023-07-09T09:18:39.501Z,735.00
2023-07-09T09:19:39.280Z,707.00
2023-07-09T09:20:39.140Z,580.00
2023-07-09T09:21:38.976Z,600.00
2023-07-09T09:22:41.733Z,641.00
2023-07-09T09:23:38.683Z,746.00
2023-07-09T09:24:38.530Z,964.00
2023-07-09T09:25:38.335Z,1211.00
2023-07-09T09:26:38.189Z,897.00
2023-07-09T09:27:38.020Z,828.00
2023-07-09T09:28:37.845Z,999.00
2023-07-09T09:29:37.724Z,985.00
2023-07-09T09:30:37.550Z,1127.00
2023-07-09T09:31:37.457Z,1119.00
2023-07-09T09:32:37.321Z,876.00
2023-07-09T09:33:37.121Z,580.00
2023-07-09T09:34:36.990Z,516.00
2023-07-09T09:35:36.806Z,512.00
2023-07-09T09:36:36.650Z,419.00
2023-07-09T09:37:36.486Z,452.00
2023-07-09T09:38:36.333Z,517.00
2023-07-09T09:39:36.179Z,529.00
2023-07-09T09:40:36.020Z,949.00
2023-07-09T09:41:35.867Z,1006.00
2023-07-09T09:42:35.711Z,837.00
2023-07-09T09:43:35.574Z,946.00
2023-07-09T09:44:35.384Z,1137.00
2023-07-09T09:45:35.260Z,876.00
2023-07-09T09:46:35.092Z,654.00
2023-07-09T09:47:35.190Z,561.00
2023-07-09T09:48:34.769Z,476.00
2023-07-09T09:49:34.576Z,558.00
2023-07-09T09:50:34.448Z,596.00
2023-07-09T09:51:34.254Z,786.00
2023-07-09T09:52:34.085Z,908.00
2023-07-09T09:53:34.015Z,1198.00
2023-07-09T09:54:33.840Z,1614.00
2023-07-09T09:55:33.699Z,1568.00
2023-07-09T09:56:33.539Z,1611.00
2023-07-09T09:57:33.396Z,1110.00
2023-07-09T09:58:33.285Z,642.00
2023-07-09T09:59:33.158Z,855.00
2023-07-09T10:00:33.065Z,1128.00
2023-07-09T10:01:33.006Z,1072.00
2023-07-09T10:02:32.897Z,1182.00
2023-07-09T10:03:32.770Z,1186.00
2023-07-09T10:04:32.638Z,1247.00
2023-07-09T10:05:32.566Z,1861.00
2023-07-09T10:06:32.528Z,1998.00
2023-07-09T10:07:32.427Z,1572.00
2023-07-09T10:08:32.368Z,1402.00
2023-07-09T10:09:32.239Z,1165.00
2023-07-09T10:10:32.152Z,950.00
2023-07-09T10:11:32.102Z,1343.00
2023-07-09T10:12:32.021Z,1402.00
2023-07-09T10:13:32.092Z,1787.00
2023-07-09T10:14:31.881Z,1601.00
2023-07-09T10:15:31.838Z,1305.00
2023-07-09T10:16:31.782Z,1035.00
2023-07-09T10:17:31.787Z,793.00
2023-07-09T10:18:31.767Z,660.00
2023-07-09T10:19:31.688Z,898.00
2023-07-09T10:20:31.643Z,1283.00
2023-07-09T10:21:31.708Z,963.00
2023-07-09T10:22:31.590Z,1393.00
2023-07-09T10:23:31.522Z,973.00
2023-07-09T10:24:31.450Z,766.00
2023-07-09T10:25:31.419Z,513.00
2023-07-09T10:26:31.355Z,551.00
2023-07-09T10:27:31.321Z,428.00
2023-07-09T10:28:31.249Z,473.00
2023-07-09T10:29:31.190Z,479.00
2023-07-09T10:30:31.121Z,460.00
2023-07-09T10:31:31.160Z,586.00
2023-07-09T10:32:31.038Z,651.00
2023-07-09T10:33:30.967Z,535.00
2023-07-09T10:34:30.918Z,521.00
2023-07-09T10:35:32.071Z,503.00
2023-07-09T10:36:30.855Z,556.00
2023-07-09T10:37:31.128Z,643.00
2023-07-09T10:38:30.761Z,666.00
2023-07-09T10:39:30.676Z,586.00
2023-07-09T10:40:30.621Z,553.00
2023-07-09T10:41:30.940Z,652.00
2023-07-09T10:42:30.619Z,764.00
2023-07-09T10:43:32.135Z,1112.00
2023-07-09T10:44:30.553Z,1150.00
2023-07-09T10:45:30.471Z,1236.00
2023-07-09T10:46:30.445Z,1324.00
2023-07-09T10:47:30.376Z,1329.00
2023-07-09T10:48:30.308Z,891.00
2023-07-09T10:49:30.207Z,913.00
2023-07-09T10:50:30.132Z,1644.00
2023-07-09T10:51:30.074Z,1378.00
2023-07-09T10:52:29.987Z,880.00
2023-07-09T10:53:29.941Z,833.00
2023-07-09T10:54:29.860Z,1255.00
2023-07-09T10:55:29.766Z,1655.00
2023-07-09T10:56:29.686Z,1306.00
2023-07-09T10:57:29.597Z,1117.00
2023-07-09T10:58:29.571Z,1747.00
2023-07-09T10:59:29.463Z,1456.00
2023-07-09T11:00:29.338Z,1004.00
2023-07-09T11:01:29.293Z,821.00
2023-07-09T11:02:29.163Z,877.00
2023-07-09T11:03:29.244Z,1017.00
2023-07-09T11:04:28.969Z,795.00
2023-07-09T11:05:28.899Z,1054.00
2023-07-09T11:06:28.799Z,451.00
2023-07-09T11:07:28.720Z,655.00
2023-07-09T11:08:28.634Z,914.00
2023-07-09T11:09:28.529Z,535.00
2023-07-09T11:10:28.437Z,536.00
2023-07-09T11:11:28.318Z,481.00
2023-07-09T11:12:28.228Z,498.00
2023-07-09T11:13:42.576Z,534.00
2023-07-09T11:14:28.093Z,502.00
2023-07-09T11:15:27.911Z,400.00
2023-07-09T11:16:27.883Z,400.00
2023-07-09T11:17:27.714Z,400.00
2023-07-09T11:18:27.733Z,501.00
2023-07-09T11:19:27.519Z,470.00
2023-07-09T11:20:27.402Z,470.00
2023-07-09T11:21:27.312Z,487.00
2023-07-09T11:22:27.220Z,565.00
2023-07-09T11:23:27.164Z,526.00
2023-07-09T11:24:27.012Z,489.00
2023-07-09T11:25:26.902Z,400.00
2023-07-09T11:26:26.819Z,400.00
2023-07-09T11:27:26.684Z,400.00
2023-07-09T11:28:26.599Z,572.00
2023-07-09T11:29:26.479Z,497.00
2023-07-09T11:30:26.376Z,506.00
2023-07-09T11:31:26.626Z,470.00
2023-07-09T11:32:26.171Z,569.00
2023-07-09T11:33:26.057Z,558.00
2023-07-09T11:34:25.920Z,586.00
2023-07-09T11:35:25.794Z,591.00
2023-07-09T11:36:25.669Z,498.00
2023-07-09T11:37:25.573Z,640.00
2023-07-09T11:38:25.492Z,1357.00
2023-07-09T11:39:25.365Z,1841.00
2023-07-09T11:40:25.246Z,1977.00
2023-07-09T11:41:25.146Z,1331.00
2023-07-09T11:42:25.069Z,1069.00
2023-07-09T11:43:24.934Z,895.00
2023-07-09T11:44:24.845Z,1179.00
2023-07-09T11:45:24.725Z,806.00
2023-07-09T11:46:24.689Z,702.00
2023-07-09T11:47:24.534Z,682.00
2023-07-09T11:48:24.455Z,400.00
2023-07-09T11:49:24.366Z,443.00
2023-07-09T11:50:24.413Z,502.00
2023-07-09T11:51:24.221Z,520.00
2023-07-09T11:52:24.192Z,610.00
2023-07-09T11:53:24.149Z,1368.00
2023-07-09T11:54:24.107Z,1198.00
2023-07-09T11:55:23.039Z,1276.00
2023-07-09T11:56:24.004Z,1684.00
2023-07-09T11:57:23.930Z,1418.00
2023-07-09T11:58:23.867Z,1151.00
2023-07-09T11:59:23.761Z,1692.00
2023-07-09T12:00:23.669Z,2092.00
2023-07-09T12:01:23.602Z,2342.00
2023-07-09T12:02:23.500Z,1566.00
2023-07-09T12:03:23.486Z,897.00
2023-07-09T12:04:23.456Z,810.00
2023-07-09T12:05:23.343Z,1544.00
2023-07-09T12:06:23.258Z,1609.00
2023-07-09T12:07:23.209Z,1446.00
2023-07-09T12:08:23.172Z,1432.00
2023-07-09T12:09:23.141Z,1396.00
2023-07-09T12:10:23.078Z,2085.00
2023-07-09T12:11:23.035Z,1963.00
2023-07-09T12:12:22.981Z,1422.00
2023-07-09T12:13:22.895Z,1228.00
2023-07-09T12:14:22.920Z,897.00
2023-07-09T12:15:22.808Z,726.00
2023-07-09T12:16:22.834Z,719.00
2023-07-09T12:17:22.732Z,879.00
2023-07-09T12:18:22.567Z,1405.00